SHT4G EGLL-EGAC
Flight info
| Callsign | SHT4G |
|---|---|
| Flight time | 0h 53m |
| Altitude | 36000 |
| Route | ULTIB T420 TNT UL28 RODOL UM65 TENSO L603 BELOX DCT REMSI DCT NINEB/N0400F240 M148 MAGEE |
| Aircraft | A320/M-SDE3FGHIRWY/LB1 |
Departure
| Time | 2026-05-05 17:43 |
|---|---|
| Airport | London Heathrow Airport (EGLL) |
Arrival
| Time | 2026-05-05 18:37 |
|---|---|
| Airport | George Best Belfast City Airport (EGAC) |
| Time | Latitude | Longitude | Altitude | Speed | Heading |
|---|---|---|---|---|---|
| 2026-05-05 17:16 | 51.47133 | -0.48043 | 86 ft | 0 kts | 270° |
| 2026-05-05 17:35 | 51.47133 | -0.48015 | 88 ft | 4 kts | 270° |
| 2026-05-05 17:36 | 51.47133 | -0.47971 | 86 ft | 4 kts | 270° |
| 2026-05-05 17:36 | 51.47134 | -0.47930 | 88 ft | 2 kts | 270° |
| 2026-05-05 17:36 | 51.47135 | -0.47895 | 91 ft | 4 kts | 242° |
| 2026-05-05 17:36 | 51.47152 | -0.47871 | 89 ft | 4 kts | 186° |
| 2026-05-05 17:37 | 51.47176 | -0.47870 | 87 ft | 2 kts | 180° |
| 2026-05-05 17:37 | 51.47177 | -0.47870 | 87 ft | 0 kts | 180° |
| 2026-05-05 17:39 | 51.47167 | -0.47870 | 86 ft | 4 kts | 180° |
| 2026-05-05 17:39 | 51.47128 | -0.47870 | 86 ft | 7 kts | 180° |
| 2026-05-05 17:40 | 51.47064 | -0.47870 | 86 ft | 11 kts | 180° |
| 2026-05-05 17:40 | 51.46997 | -0.47869 | 86 ft | 10 kts | 180° |
| 2026-05-05 17:40 | 51.46932 | -0.47868 | 86 ft | 10 kts | 180° |
| 2026-05-05 17:40 | 51.46859 | -0.47868 | 86 ft | 11 kts | 180° |
| 2026-05-05 17:41 | 51.46787 | -0.47867 | 86 ft | 10 kts | 180° |
| 2026-05-05 17:41 | 51.46743 | -0.47923 | 86 ft | 9 kts | 263° |
| 2026-05-05 17:41 | 51.46742 | -0.48036 | 86 ft | 12 kts | 270° |
| 2026-05-05 17:41 | 51.46741 | -0.48162 | 86 ft | 11 kts | 265° |
| 2026-05-05 17:42 | 51.46685 | -0.48212 | 86 ft | 12 kts | 177° |
| 2026-05-05 17:42 | 51.46601 | -0.48211 | 87 ft | 11 kts | 180° |
| 2026-05-05 17:42 | 51.46520 | -0.48211 | 88 ft | 10 kts | 180° |
| 2026-05-05 17:42 | 51.46481 | -0.48164 | 88 ft | 9 kts | 101° |
| 2026-05-05 17:43 | 51.46480 | -0.47877 | 87 ft | 58 kts | 89° |
| 2026-05-05 17:43 | 51.46485 | -0.46867 | 91 ft | 120 kts | 90° |
| 2026-05-05 17:43 | 51.46499 | -0.45266 | 106 ft | 164 kts | 88° |
| 2026-05-05 17:43 | 51.46526 | -0.43452 | 747 ft | 163 kts | 86° |
| 2026-05-05 17:44 | 51.46663 | -0.41665 | 1452 ft | 165 kts | 65° |
| 2026-05-05 17:44 | 51.47363 | -0.40080 | 1778 ft | 186 kts | 48° |
| 2026-05-05 17:44 | 51.48262 | -0.38398 | 2125 ft | 211 kts | 48° |
| 2026-05-05 17:44 | 51.49270 | -0.36500 | 2618 ft | 235 kts | 49° |
| 2026-05-05 17:45 | 51.50365 | -0.34409 | 3316 ft | 250 kts | 49° |
| 2026-05-05 17:45 | 51.51482 | -0.32237 | 4291 ft | 255 kts | 52° |
| 2026-05-05 17:45 | 51.52370 | -0.29732 | 5137 ft | 263 kts | 67° |
| 2026-05-05 17:45 | 51.52969 | -0.26945 | 6135 ft | 266 kts | 70° |
| 2026-05-05 17:46 | 51.53559 | -0.24099 | 7032 ft | 271 kts | 70° |
| 2026-05-05 17:46 | 51.54281 | -0.21337 | 7876 ft | 275 kts | 54° |
| 2026-05-05 17:46 | 51.55632 | -0.19182 | 8705 ft | 277 kts | 30° |
| 2026-05-05 17:46 | 51.57443 | -0.18142 | 9638 ft | 280 kts | 5° |
| 2026-05-05 17:47 | 51.59384 | -0.18430 | 10323 ft | 290 kts | 342° |
| 2026-05-05 17:47 | 51.61234 | -0.19997 | 10576 ft | 313 kts | 327° |
| 2026-05-05 17:47 | 51.63114 | -0.21970 | 10956 ft | 329 kts | 327° |
| 2026-05-05 17:47 | 51.65064 | -0.23976 | 11631 ft | 336 kts | 327° |
| 2026-05-05 17:48 | 51.67053 | -0.26005 | 12400 ft | 340 kts | 327° |
| 2026-05-05 17:48 | 51.69070 | -0.28049 | 12995 ft | 345 kts | 328° |
| 2026-05-05 17:48 | 51.71110 | -0.30112 | 13788 ft | 348 kts | 328° |
| 2026-05-05 17:48 | 51.73171 | -0.32207 | 14453 ft | 353 kts | 327° |
| 2026-05-05 17:49 | 51.75263 | -0.34328 | 15124 ft | 357 kts | 328° |
| 2026-05-05 17:49 | 51.77375 | -0.36478 | 15769 ft | 361 kts | 327° |
| 2026-05-05 17:49 | 51.79512 | -0.38664 | 16353 ft | 365 kts | 327° |
| 2026-05-05 17:49 | 51.81672 | -0.40864 | 16994 ft | 369 kts | 327° |
| 2026-05-05 17:50 | 51.83861 | -0.43091 | 17608 ft | 374 kts | 327° |
| 2026-05-05 17:50 | 51.86082 | -0.45344 | 18229 ft | 379 kts | 327° |
| 2026-05-05 17:50 | 51.88324 | -0.47636 | 18793 ft | 383 kts | 327° |
| 2026-05-05 17:50 | 51.90580 | -0.49943 | 19404 ft | 385 kts | 327° |
| 2026-05-05 17:51 | 51.92851 | -0.52274 | 20058 ft | 388 kts | 326° |
| 2026-05-05 17:51 | 51.95138 | -0.54622 | 20696 ft | 390 kts | 326° |
| 2026-05-05 17:51 | 51.97411 | -0.56957 | 21326 ft | 393 kts | 326° |
| 2026-05-05 17:51 | 51.99757 | -0.59373 | 21935 ft | 396 kts | 326° |
| 2026-05-05 17:52 | 52.02058 | -0.61737 | 22509 ft | 398 kts | 326° |
| 2026-05-05 17:52 | 52.04410 | -0.64153 | 23094 ft | 401 kts | 326° |
| 2026-05-05 17:52 | 52.06775 | -0.66587 | 23664 ft | 404 kts | 325° |
| 2026-05-05 17:52 | 52.09155 | -0.69054 | 24149 ft | 407 kts | 325° |
| 2026-05-05 17:53 | 52.11558 | -0.71548 | 24614 ft | 411 kts | 325° |
| 2026-05-05 17:53 | 52.13980 | -0.74055 | 25068 ft | 415 kts | 325° |
| 2026-05-05 17:53 | 52.16433 | -0.76590 | 25519 ft | 419 kts | 325° |
| 2026-05-05 17:53 | 52.18903 | -0.79152 | 25971 ft | 423 kts | 324° |
| 2026-05-05 17:54 | 52.21397 | -0.81747 | 26419 ft | 427 kts | 324° |
| 2026-05-05 17:54 | 52.23909 | -0.84370 | 26861 ft | 431 kts | 324° |
| 2026-05-05 17:54 | 52.26463 | -0.86988 | 27303 ft | 436 kts | 326° |
| 2026-05-05 17:54 | 52.29071 | -0.89554 | 27760 ft | 439 kts | 326° |
| 2026-05-05 17:55 | 52.31693 | -0.92157 | 28225 ft | 443 kts | 325° |
| 2026-05-05 17:55 | 52.34336 | -0.94788 | 28661 ft | 446 kts | 325° |
| 2026-05-05 17:55 | 52.36997 | -0.97433 | 29067 ft | 450 kts | 325° |
| 2026-05-05 17:55 | 52.39686 | -1.00108 | 29477 ft | 454 kts | 325° |
| 2026-05-05 17:56 | 52.42386 | -1.02811 | 29916 ft | 456 kts | 325° |
| 2026-05-05 17:56 | 52.45096 | -1.05539 | 30318 ft | 458 kts | 325° |
| 2026-05-05 17:56 | 52.47810 | -1.08263 | 30853 ft | 456 kts | 325° |
| 2026-05-05 17:56 | 52.50507 | -1.10974 | 31399 ft | 454 kts | 326° |
| 2026-05-05 17:57 | 52.53195 | -1.13679 | 31963 ft | 452 kts | 326° |
| 2026-05-05 17:57 | 52.55867 | -1.16371 | 32530 ft | 450 kts | 326° |
| 2026-05-05 17:57 | 52.58534 | -1.19051 | 33112 ft | 448 kts | 326° |
| 2026-05-05 17:57 | 52.61145 | -1.21687 | 33659 ft | 446 kts | 326° |
| 2026-05-05 17:58 | 52.63782 | -1.24357 | 34199 ft | 444 kts | 326° |
| 2026-05-05 17:58 | 52.66407 | -1.27019 | 34638 ft | 443 kts | 326° |
| 2026-05-05 17:58 | 52.69036 | -1.29674 | 35065 ft | 443 kts | 326° |
| 2026-05-05 17:58 | 52.71655 | -1.32343 | 35475 ft | 443 kts | 326° |
| 2026-05-05 17:59 | 52.74279 | -1.35018 | 35857 ft | 444 kts | 326° |
| 2026-05-05 17:59 | 52.76923 | -1.37707 | 36000 ft | 448 kts | 326° |
| 2026-05-05 17:59 | 52.79578 | -1.40416 | 36004 ft | 449 kts | 326° |
| 2026-05-05 18:00 | 52.84882 | -1.45849 | 35998 ft | 449 kts | 326° |
| 2026-05-05 18:00 | 52.90191 | -1.51284 | 35999 ft | 449 kts | 326° |
| 2026-05-05 18:01 | 52.95486 | -1.56740 | 36005 ft | 447 kts | 327° |
| 2026-05-05 18:01 | 53.00767 | -1.62183 | 36006 ft | 447 kts | 327° |
| 2026-05-05 18:02 | 53.06045 | -1.67658 | 36016 ft | 447 kts | 326° |
| 2026-05-05 18:02 | 53.11314 | -1.73144 | 36021 ft | 447 kts | 326° |
| 2026-05-05 18:03 | 53.16580 | -1.78634 | 36022 ft | 446 kts | 326° |
| 2026-05-05 18:03 | 53.21840 | -1.84136 | 36022 ft | 446 kts | 326° |
| 2026-05-05 18:04 | 53.27179 | -1.89421 | 36037 ft | 447 kts | 329° |
| 2026-05-05 18:04 | 53.32568 | -1.94490 | 36039 ft | 447 kts | 328° |
| 2026-05-05 18:05 | 53.37977 | -1.99616 | 36041 ft | 447 kts | 328° |
| 2026-05-05 18:05 | 53.43388 | -2.04763 | 36042 ft | 447 kts | 328° |
| 2026-05-05 18:06 | 53.48796 | -2.09934 | 36046 ft | 447 kts | 328° |
| 2026-05-05 18:06 | 53.54196 | -2.15106 | 36047 ft | 446 kts | 328° |
| 2026-05-05 18:07 | 53.59014 | -2.21537 | 36046 ft | 442 kts | 310° |
| 2026-05-05 18:07 | 53.62263 | -2.30196 | 36043 ft | 438 kts | 290° |
| 2026-05-05 18:08 | 53.64438 | -2.39781 | 36044 ft | 438 kts | 290° |
| 2026-05-05 18:08 | 53.66623 | -2.49376 | 36045 ft | 438 kts | 290° |
| 2026-05-05 18:09 | 53.68791 | -2.58902 | 36042 ft | 438 kts | 289° |
| 2026-05-05 18:09 | 53.70957 | -2.68507 | 36055 ft | 437 kts | 289° |
| 2026-05-05 18:10 | 53.73128 | -2.78091 | 36060 ft | 436 kts | 289° |
| 2026-05-05 18:10 | 53.75257 | -2.87675 | 36054 ft | 435 kts | 289° |
| 2026-05-05 18:11 | 53.77402 | -2.97238 | 36052 ft | 435 kts | 289° |
| 2026-05-05 18:11 | 53.79535 | -3.06802 | 36049 ft | 434 kts | 289° |
| 2026-05-05 18:12 | 53.81296 | -3.14756 | 36046 ft | 434 kts | 289° |
| 2026-05-05 18:12 | 53.83404 | -3.24319 | 35899 ft | 432 kts | 289° |
| 2026-05-05 18:12 | 53.84452 | -3.29081 | 35648 ft | 431 kts | 289° |
| 2026-05-05 18:13 | 53.85492 | -3.33823 | 35401 ft | 430 kts | 288° |
| 2026-05-05 18:13 | 53.86524 | -3.38577 | 35148 ft | 429 kts | 288° |
| 2026-05-05 18:13 | 53.87558 | -3.43321 | 34490 ft | 431 kts | 288° |
| 2026-05-05 18:13 | 53.88598 | -3.48114 | 33681 ft | 435 kts | 288° |
| 2026-05-05 18:14 | 53.89623 | -3.52819 | 32922 ft | 436 kts | 288° |
| 2026-05-05 18:14 | 53.90575 | -3.57202 | 32247 ft | 436 kts | 288° |
| 2026-05-05 18:14 | 53.91616 | -3.62011 | 31716 ft | 431 kts | 288° |
| 2026-05-05 18:14 | 53.92641 | -3.66761 | 31185 ft | 427 kts | 288° |
| 2026-05-05 18:15 | 53.93654 | -3.71464 | 30655 ft | 422 kts | 288° |
| 2026-05-05 18:15 | 53.94652 | -3.76128 | 30140 ft | 418 kts | 288° |
| 2026-05-05 18:15 | 53.95648 | -3.80739 | 29554 ft | 414 kts | 290° |
| 2026-05-05 18:15 | 53.96881 | -3.85112 | 29054 ft | 409 kts | 297° |
| 2026-05-05 18:16 | 53.98290 | -3.89281 | 28540 ft | 404 kts | 298° |
| 2026-05-05 18:16 | 53.99683 | -3.93389 | 28024 ft | 399 kts | 298° |
| 2026-05-05 18:16 | 54.01063 | -3.97456 | 27507 ft | 395 kts | 298° |
| 2026-05-05 18:16 | 54.02428 | -4.01493 | 26988 ft | 392 kts | 298° |
| 2026-05-05 18:17 | 54.03772 | -4.05501 | 26477 ft | 389 kts | 298° |
| 2026-05-05 18:17 | 54.05090 | -4.09432 | 25953 ft | 386 kts | 298° |
| 2026-05-05 18:17 | 54.06455 | -4.13354 | 25438 ft | 385 kts | 302° |
| 2026-05-05 18:17 | 54.07989 | -4.17075 | 24929 ft | 382 kts | 303° |
| 2026-05-05 18:18 | 54.09527 | -4.20752 | 24411 ft | 380 kts | 303° |
| 2026-05-05 18:18 | 54.11050 | -4.24431 | 23890 ft | 379 kts | 304° |
| 2026-05-05 18:18 | 54.12562 | -4.28096 | 23339 ft | 377 kts | 304° |
| 2026-05-05 18:18 | 54.14065 | -4.31745 | 22792 ft | 374 kts | 304° |
| 2026-05-05 18:19 | 54.15557 | -4.35357 | 22270 ft | 371 kts | 304° |
| 2026-05-05 18:19 | 54.17034 | -4.38936 | 21767 ft | 368 kts | 304° |
| 2026-05-05 18:19 | 54.18502 | -4.42491 | 21243 ft | 365 kts | 304° |
| 2026-05-05 18:19 | 54.19960 | -4.46022 | 20735 ft | 362 kts | 304° |
| 2026-05-05 18:20 | 54.21396 | -4.49531 | 20227 ft | 359 kts | 304° |
| 2026-05-05 18:20 | 54.22827 | -4.53013 | 19715 ft | 357 kts | 304° |
| 2026-05-05 18:20 | 54.24243 | -4.56481 | 19203 ft | 354 kts | 304° |
| 2026-05-05 18:20 | 54.25651 | -4.59933 | 18705 ft | 352 kts | 304° |
| 2026-05-05 18:21 | 54.27041 | -4.63354 | 18178 ft | 350 kts | 304° |
| 2026-05-05 18:21 | 54.28427 | -4.66754 | 17646 ft | 347 kts | 304° |
| 2026-05-05 18:21 | 54.29796 | -4.70120 | 17160 ft | 342 kts | 304° |
| 2026-05-05 18:21 | 54.31150 | -4.73448 | 16674 ft | 338 kts | 304° |
| 2026-05-05 18:22 | 54.32483 | -4.76745 | 16191 ft | 335 kts | 304° |
| 2026-05-05 18:22 | 54.33809 | -4.80003 | 15714 ft | 332 kts | 304° |
| 2026-05-05 18:22 | 54.35119 | -4.83236 | 15236 ft | 328 kts | 304° |
| 2026-05-05 18:22 | 54.36419 | -4.86441 | 14779 ft | 326 kts | 303° |
| 2026-05-05 18:23 | 54.37697 | -4.89638 | 14318 ft | 324 kts | 303° |
| 2026-05-05 18:23 | 54.38969 | -4.92816 | 13857 ft | 322 kts | 303° |
| 2026-05-05 18:23 | 54.40236 | -4.95966 | 13387 ft | 320 kts | 303° |
| 2026-05-05 18:23 | 54.41495 | -4.99085 | 12930 ft | 316 kts | 304° |
| 2026-05-05 18:24 | 54.42734 | -5.02168 | 12497 ft | 313 kts | 303° |
| 2026-05-05 18:24 | 54.43965 | -5.05235 | 12053 ft | 311 kts | 304° |
| 2026-05-05 18:24 | 54.45192 | -5.08260 | 11850 ft | 309 kts | 304° |
| 2026-05-05 18:24 | 54.46425 | -5.11309 | 11654 ft | 311 kts | 304° |
| 2026-05-05 18:25 | 54.47663 | -5.14366 | 11459 ft | 311 kts | 304° |
| 2026-05-05 18:25 | 54.48481 | -5.16389 | 11308 ft | 311 kts | 303° |
| 2026-05-05 18:25 | 54.49525 | -5.20922 | 10814 ft | 307 kts | 277° |
| 2026-05-05 18:25 | 54.49655 | -5.24583 | 10399 ft | 305 kts | 274° |
| 2026-05-05 18:26 | 54.49610 | -5.28167 | 10256 ft | 295 kts | 264° |
| 2026-05-05 18:26 | 54.49342 | -5.31611 | 10131 ft | 285 kts | 264° |
| 2026-05-05 18:26 | 54.49075 | -5.34931 | 9964 ft | 277 kts | 264° |
| 2026-05-05 18:26 | 54.48811 | -5.38184 | 9540 ft | 272 kts | 264° |
| 2026-05-05 18:27 | 54.48548 | -5.41398 | 8856 ft | 272 kts | 264° |
| 2026-05-05 18:27 | 54.48279 | -5.44605 | 8219 ft | 271 kts | 264° |
| 2026-05-05 18:27 | 54.48012 | -5.47804 | 7586 ft | 270 kts | 264° |
| 2026-05-05 18:27 | 54.47740 | -5.50990 | 6980 ft | 269 kts | 264° |
| 2026-05-05 18:28 | 54.47207 | -5.57337 | 5769 ft | 267 kts | 264° |
| 2026-05-05 18:28 | 54.46934 | -5.60485 | 5190 ft | 264 kts | 264° |
| 2026-05-05 18:28 | 54.46667 | -5.63591 | 4645 ft | 261 kts | 264° |
| 2026-05-05 18:29 | 54.46398 | -5.66590 | 4446 ft | 244 kts | 264° |
| 2026-05-05 18:29 | 54.46137 | -5.69361 | 4311 ft | 226 kts | 264° |
| 2026-05-05 18:29 | 54.45895 | -5.71981 | 3963 ft | 220 kts | 264° |
| 2026-05-05 18:29 | 54.45648 | -5.74551 | 3533 ft | 218 kts | 264° |
| 2026-05-05 18:30 | 54.45399 | -5.77108 | 3100 ft | 216 kts | 264° |
| 2026-05-05 18:30 | 54.45162 | -5.79584 | 2895 ft | 203 kts | 264° |
| 2026-05-05 18:30 | 54.44931 | -5.81908 | 2673 ft | 194 kts | 264° |
| 2026-05-05 18:30 | 54.44699 | -5.84176 | 2340 ft | 193 kts | 264° |
| 2026-05-05 18:31 | 54.44466 | -5.86439 | 2125 ft | 192 kts | 263° |
| 2026-05-05 18:31 | 54.44239 | -5.88691 | 2024 ft | 191 kts | 263° |
| 2026-05-05 18:31 | 54.44096 | -5.90950 | 2004 ft | 188 kts | 277° |
| 2026-05-05 18:31 | 54.44290 | -5.93148 | 1986 ft | 184 kts | 298° |
| 2026-05-05 18:32 | 54.44982 | -5.94957 | 2025 ft | 179 kts | 309° |
| 2026-05-05 18:32 | 54.45716 | -5.96667 | 2013 ft | 177 kts | 308° |
| 2026-05-05 18:32 | 54.46588 | -5.98111 | 1980 ft | 175 kts | 337° |
| 2026-05-05 18:32 | 54.47754 | -5.98612 | 2003 ft | 170 kts | 349° |
| 2026-05-05 18:33 | 54.48889 | -5.99001 | 1998 ft | 164 kts | 349° |
| 2026-05-05 18:33 | 54.49998 | -5.99389 | 2000 ft | 162 kts | 349° |
| 2026-05-05 18:33 | 54.51118 | -5.99423 | 2006 ft | 163 kts | 10° |
| 2026-05-05 18:33 | 54.52169 | -5.98709 | 2007 ft | 164 kts | 28° |
| 2026-05-05 18:34 | 54.53097 | -5.97634 | 1951 ft | 155 kts | 32° |
| 2026-05-05 18:34 | 54.53950 | -5.96621 | 1797 ft | 143 kts | 31° |
| 2026-05-05 18:34 | 54.54744 | -5.95677 | 1645 ft | 134 kts | 31° |
| 2026-05-05 18:34 | 54.55497 | -5.94782 | 1460 ft | 130 kts | 30° |
| 2026-05-05 18:35 | 54.56231 | -5.93896 | 1269 ft | 128 kts | 31° |
| 2026-05-05 18:35 | 54.56969 | -5.93024 | 1089 ft | 128 kts | 30° |
| 2026-05-05 18:35 | 54.57700 | -5.92156 | 897 ft | 128 kts | 31° |
| 2026-05-05 18:35 | 54.58440 | -5.91286 | 726 ft | 129 kts | 32° |
| 2026-05-05 18:36 | 54.59173 | -5.90401 | 559 ft | 130 kts | 32° |
| 2026-05-05 18:36 | 54.59917 | -5.89503 | 374 ft | 130 kts | 32° |
| 2026-05-05 18:36 | 54.60665 | -5.88623 | 196 ft | 130 kts | 31° |
| 2026-05-05 18:36 | 54.61403 | -5.87739 | 23 ft | 126 kts | 30° |
| 2026-05-05 18:37 | 54.61962 | -5.87070 | 16 ft | 57 kts | 35° |
| 2026-05-05 18:37 | 54.62240 | -5.86744 | 22 ft | 44 kts | 35° |
| 2026-05-05 18:37 | 54.62408 | -5.86552 | 22 ft | 17 kts | 14° |
| 2026-05-05 18:37 | 54.62478 | -5.86490 | 20 ft | 13 kts | 92° |
| 2026-05-05 18:38 | 54.62412 | -5.86509 | 21 ft | 12 kts | 220° |
| 2026-05-05 18:38 | 54.62335 | -5.86620 | 21 ft | 17 kts | 218° |
| 2026-05-05 18:38 | 54.62225 | -5.86756 | 20 ft | 21 kts | 215° |
| 2026-05-05 18:38 | 54.62088 | -5.86922 | 17 ft | 26 kts | 214° |
| 2026-05-05 18:39 | 54.61932 | -5.87107 | 17 ft | 26 kts | 215° |
| 2026-05-05 18:39 | 54.61841 | -5.87176 | 18 ft | 12 kts | 156° |
| 2026-05-05 18:39 | 54.61786 | -5.87054 | 20 ft | 11 kts | 124° |
| 2026-05-05 18:39 | 54.61726 | -5.86994 | 21 ft | 12 kts | 194° |
| 2026-05-05 18:40 | 54.61653 | -5.87075 | 21 ft | 13 kts | 215° |
| 2026-05-05 18:40 | 54.61588 | -5.87155 | 21 ft | 9 kts | 215° |
| 2026-05-05 18:40 | 54.61539 | -5.87214 | 21 ft | 7 kts | 215° |
| 2026-05-05 18:40 | 54.61491 | -5.87211 | 21 ft | 5 kts | 159° |
| 2026-05-05 18:41 | 54.61468 | -5.87193 | 23 ft | 2 kts | 156° |
| 2026-05-05 18:41 | 54.61463 | -5.87188 | 22 ft | 0 kts | 156° |